Time;durP1;ratioP1;P1;durP2;ratioP2;P2;SDS_P1;SDS_P2;PMS_P1;PMS_P2;Temp;Humidity;BMP_temperature;BMP_pressure;BME280_temperature;BME280_humidity;BME280_pressure;Samples;Min_cycle;Max_cycle;Signal;HPM_P1;HPM_P2
2023/07/15 00:01:35;;;;;;;8.23;4.72;;;;;;;28.66;43.16;99757.06;4470120;32;33942;-70
2023/07/15 00:04:03;;;;;;;7.72;4.05;;;;;;;28.66;43.12;99759.81;4485494;31;34097;-70
2023/07/15 00:06:31;;;;;;;6.62;3.83;;;;;;;28.63;43.13;99758.44;4500331;31;34067;-70
2023/07/15 00:08:58;;;;;;;6.55;4.00;;;;;;;28.62;43.11;99751.25;4500086;31;33842;-71
2023/07/15 00:11:37;;;;;;;6.60;4.30;;;;;;;28.63;43.10;99752.94;4500129;31;33750;-71
2023/07/15 00:14:18;;;;;;;8.40;4.35;;;;;;;28.64;43.05;99748.28;4498623;31;33777;-69
2023/07/15 00:16:46;;;;;;;6.40;4.15;;;;;;;28.61;43.10;99743.28;4499961;31;33867;-69
2023/07/15 00:19:14;;;;;;;5.40;3.80;;;;;;;28.61;43.06;99749.59;4500037;31;33668;-70
2023/07/15 00:21:41;;;;;;;6.00;3.97;;;;;;;28.61;43.06;99749.59;4500221;31;33388;-69
2023/07/15 00:24:09;;;;;;;5.93;3.65;;;;;;;28.60;43.06;99753.44;4499833;31;34668;-70
2023/07/15 00:26:37;;;;;;;6.40;4.10;;;;;;;28.59;43.05;99749.06;4499985;31;34054;-69
2023/07/15 00:29:05;;;;;;;6.70;4.15;;;;;;;28.59;43.04;99746.31;4500147;31;33563;-70
2023/07/15 00:31:34;;;;;;;5.50;3.33;;;;;;;28.58;43.04;99744.63;4499596;31;34991;-69
2023/07/15 00:34:02;;;;;;;6.72;3.72;;;;;;;28.58;43.04;99749.28;4485684;31;32958;-64
2023/07/15 00:36:31;;;;;;;5.87;3.75;;;;;;;28.59;42.99;99750.97;4498582;31;34708;-68
2023/07/15 00:38:58;;;;;;;6.87;4.10;;;;;;;28.57;43.01;99751.22;4499721;31;34422;-65
2023/07/15 00:41:27;;;;;;;6.03;3.87;;;;;;;28.57;42.99;99734.75;4499760;31;34011;-64
2023/07/15 00:43:56;;;;;;;6.10;3.73;;;;;;;28.56;43.00;99738.59;4499695;31;33989;-64
2023/07/15 00:46:37;;;;;;;7.68;4.00;;;;;;;28.57;42.97;99742.16;4499640;31;34716;-64
2023/07/15 00:49:22;;;;;;;5.60;3.53;;;;;;;28.55;42.97;99736.94;4486302;31;34262;-64
2023/07/15 00:52:09;;;;;;;5.95;3.45;;;;;;;28.57;42.94;99734.75;4498203;31;34392;-68
2023/07/15 00:54:40;;;;;;;6.10;4.18;;;;;;;28.54;42.95;99724.31;4486581;31;33720;-64
2023/07/15 00:57:08;;;;;;;5.72;3.78;;;;;;;28.52;42.94;99720.97;4498082;31;33863;-64
2023/07/15 00:59:35;;;;;;;7.62;4.68;;;;;;;28.52;42.92;99726.47;4498582;31;32961;-64
2023/07/15 01:02:03;;;;;;;5.57;3.80;;;;;;;28.51;42.92;99727.56;4498183;31;34703;-63
2023/07/15 01:04:31;;;;;;;5.60;4.10;;;;;;;28.50;42.91;99725.91;4497906;31;33934;-64
2023/07/15 01:06:58;;;;;;;7.32;4.00;;;;;;;28.49;42.89;99716.00;4499529;31;34761;-66
2023/07/15 01:09:26;;;;;;;6.22;3.90;;;;;;;28.48;42.88;99723.41;4501544;31;34571;-64
2023/07/15 01:11:54;;;;;;;6.68;4.07;;;;;;;28.49;42.88;99718.75;4501162;31;34835;-64
2023/07/15 01:14:21;;;;;;;6.05;3.95;;;;;;;28.47;42.86;99716.28;4501268;31;34022;-65
2023/07/15 01:16:49;;;;;;;6.47;4.25;;;;;;;28.47;42.85;99716.28;4501215;31;34557;-64
2023/07/15 01:19:18;;;;;;;6.30;4.12;;;;;;;28.47;42.83;99718.19;4501170;31;33218;-64
2023/07/15 01:21:50;;;;;;;6.53;3.65;;;;;;;28.47;42.84;99713.53;4501485;31;33896;-64
2023/07/15 01:24:20;;;;;;;5.90;3.97;;;;;;;28.47;42.83;99712.72;4501211;31;34661;-68
2023/07/15 01:26:54;;;;;;;5.18;3.40;;;;;;;28.45;42.82;99715.72;4499905;31;34262;-63
2023/07/15 01:29:22;;;;;;;9.13;4.07;;;;;;;28.45;42.82;99715.72;4501253;31;34165;-64
2023/07/15 01:31:50;;;;;;;5.87;3.75;;;;;;;28.44;42.80;99716.78;4500820;31;33910;-64
2023/07/15 01:34:19;;;;;;;5.45;3.67;;;;;;;28.43;42.81;99711.56;4501388;31;34013;-63
2023/07/15 01:36:48;;;;;;;5.35;3.72;;;;;;;28.44;42.80;99716.78;4501298;31;34025;-64
2023/07/15 01:39:15;;;;;;;7.72;4.43;;;;;;;28.43;42.80;99708.84;4501010;31;33304;-64
2023/07/15 01:41:43;;;;;;;6.30;3.95;;;;;;;28.42;42.81;99712.69;4501440;31;33986;-64
2023/07/15 01:44:12;;;;;;;7.32;4.07;;;;;;;28.42;42.80;99715.41;4499897;31;34588;-63
2023/07/15 01:46:40;;;;;;;6.12;3.90;;;;;;;28.41;42.80;99720.09;4500840;31;33950;-63
2023/07/15 01:49:08;;;;;;;6.25;3.72;;;;;;;28.39;42.80;99711.25;4501279;31;34288;-64
2023/07/15 01:51:36;;;;;;;6.40;4.30;;;;;;;28.39;42.79;99716.75;4501018;31;33842;-63
2023/07/15 01:54:03;;;;;;;6.93;3.90;;;;;;;28.40;42.78;99720.34;4500916;31;33705;-63
2023/07/15 01:56:31;;;;;;;5.85;4.20;;;;;;;28.39;42.75;99713.19;4499717;31;34498;-71
2023/07/15 01:58:58;;;;;;;7.87;3.92;;;;;;;28.38;42.75;99720.59;4499772;31;33368;-68
2023/07/15 02:01:26;;;;;;;5.75;3.87;;;;;;;28.38;42.74;99717.03;4500877;31;34803;-66
2023/07/15 02:03:54;;;;;;;7.78;4.03;;;;;;;28.38;42.72;99725.25;4499726;31;33896;-69
2023/07/15 02:06:22;;;;;;;5.80;4.22;;;;;;;28.37;42.72;99723.62;4500974;31;34608;-65
2023/07/15 02:08:50;;;;;;;7.37;3.97;;;;;;;28.35;42.73;99723.88;4500635;31;33297;-67
2023/07/15 02:11:18;;;;;;;6.15;4.32;;;;;;;28.35;42.72;99726.63;4500990;31;33401;-71
2023/07/15 02:13:46;;;;;;;6.22;4.40;;;;;;;28.35;42.71;99723.88;4500936;31;34802;-68
2023/07/15 02:16:14;;;;;;;5.82;4.15;;;;;;;28.37;42.67;99726.34;4500688;31;33902;-71
2023/07/15 02:18:42;;;;;;;6.30;3.72;;;;;;;28.35;42.68;99717.53;4500248;31;33701;-70
2023/07/15 02:21:10;;;;;;;7.10;4.20;;;;;;;28.33;42.68;99715.03;4499489;31;33227;-70
2023/07/15 02:23:37;;;;;;;5.93;4.15;;;;;;;28.32;42.69;99724.38;4500669;31;34482;-70
2023/07/15 02:26:05;;;;;;;6.00;3.95;;;;;;;28.32;42.69;99718.87;4500776;31;33856;-64
2023/07/15 02:28:32;;;;;;;5.65;4.03;;;;;;;28.31;42.70;99725.47;4500729;31;33334;-70
2023/07/15 02:31:02;;;;;;;6.35;3.75;;;;;;;28.31;42.70;99730.12;4500419;31;33346;-69
2023/07/15 02:33:30;;;;;;;5.93;3.65;;;;;;;28.31;42.67;99730.12;4500996;31;34043;-69
2023/07/15 02:35:57;;;;;;;7.82;3.95;;;;;;;28.31;42.69;99730.12;4500702;31;33818;-70
2023/07/15 02:38:25;;;;;;;5.47;3.58;;;;;;;28.30;42.68;99722.94;4500677;31;34441;-70
2023/07/15 02:40:54;;;;;;;8.35;4.43;;;;;;;28.31;42.69;99730.12;4500755;31;34640;-70
2023/07/15 02:43:21;;;;;;;5.97;4.33;;;;;;;28.29;42.71;99729.53;4500588;31;34523;-70
2023/07/15 02:45:52;;;;;;;4.68;3.20;;;;;;;28.30;42.68;99723.78;4500820;31;33762;-71
2023/07/15 02:48:20;;;;;;;6.43;4.07;;;;;;;28.29;42.71;99735.03;4499376;31;33917;-71
2023/07/15 02:50:51;;;;;;;8.52;4.10;;;;;;;28.28;42.71;99730.62;4500531;31;34022;-71
2023/07/15 02:53:19;;;;;;;6.60;4.57;;;;;;;28.28;42.75;99733.38;4500690;31;34027;-71
2023/07/15 02:55:46;;;;;;;6.82;4.50;;;;;;;28.28;42.75;99742.44;4500620;31;33844;-69
2023/07/15 02:58:14;;;;;;;6.50;4.00;;;;;;;28.28;42.78;99741.59;4500503;31;33657;-71
2023/07/15 03:00:41;;;;;;;5.82;4.12;;;;;;;28.27;42.79;99738.03;4500562;31;33808;-70
2023/07/15 03:03:10;;;;;;;6.47;4.05;;;;;;;28.28;42.81;99741.59;4500595;31;34515;-71
2023/07/15 03:05:45;;;;;;;6.22;4.30;;;;;;;28.28;42.82;99734.19;4488432;31;33417;-69
2023/07/15 03:08:13;;;;;;;6.30;4.62;;;;;;;28.27;42.87;99743.53;4484711;32;33380;-70
2023/07/15 03:10:44;;;;;;;6.50;4.37;;;;;;;28.27;42.85;99737.22;4484649;32;32972;-70
2023/07/15 03:13:11;;;;;;;8.65;4.47;;;;;;;28.28;42.91;99738.88;4484671;32;34051;-69
2023/07/15 03:15:39;;;;;;;7.43;4.28;;;;;;;28.27;42.92;99735.28;4484750;32;34645;-70
2023/07/15 03:18:07;;;;;;;6.50;4.68;;;;;;;28.27;42.94;99742.69;4484483;32;34208;-71
2023/07/15 03:20:35;;;;;;;6.95;4.05;;;;;;;28.26;42.97;99733.66;4484613;32;33825;-69
2023/07/15 03:23:03;;;;;;;6.82;4.47;;;;;;;28.24;43.01;99738.56;4483440;32;33859;-68
2023/07/15 03:25:31;;;;;;;7.27;4.70;;;;;;;28.25;43.03;99731.16;4484518;32;34472;-70
2023/07/15 03:27:59;;;;;;;6.72;4.37;;;;;;;28.26;43.02;99725.41;4483340;32;34188;-69
2023/07/15 03:30:27;;;;;;;6.45;4.78;;;;;;;28.25;43.05;99734.72;4483025;32;34085;-69
2023/07/15 03:32:56;;;;;;;6.62;4.12;;;;;;;28.23;43.06;99726.75;4484412;32;33503;-69
2023/07/15 03:35:25;;;;;;;7.43;4.60;;;;;;;28.23;43.10;99732.25;4483583;32;34257;-70
2023/07/15 03:37:53;;;;;;;10.85;4.35;;;;;;;28.23;43.08;99721.25;4484528;32;33466;-69
2023/07/15 03:40:21;;;;;;;9.55;4.80;;;;;;;28.23;43.10;99728.66;4484269;32;33986;-66
2023/07/15 03:42:48;;;;;;;6.25;3.87;;;;;;;28.22;43.10;99730.59;4484429;32;34824;-67
2023/07/15 03:45:16;;;;;;;7.40;4.68;;;;;;;28.23;43.10;99731.41;4484444;32;33891;-65
2023/07/15 03:47:44;;;;;;;6.47;4.40;;;;;;;28.23;43.09;99739.66;4484584;32;33473;-67
2023/07/15 03:50:12;;;;;;;7.20;4.53;;;;;;;28.22;43.10;99744.31;4484377;32;33955;-68
2023/07/15 03:52:40;;;;;;;6.50;4.28;;;;;;;28.22;43.09;99743.47;4484358;32;34749;-64
2023/07/15 03:55:07;;;;;;;6.10;4.15;;;;;;;28.23;43.09;99745.12;4484546;32;33985;-64
2023/07/15 03:57:35;;;;;;;8.00;4.87;;;;;;;28.21;43.10;99739.91;4484434;32;33224;-66
2023/07/15 04:00:13;;;;;;;7.12;4.28;;;;;;;28.21;43.11;99739.06;4484537;32;34056;-69
2023/07/15 04:02:48;;;;;;;6.32;4.40;;;;;;;28.21;43.12;99739.06;4484388;32;34367;-69
2023/07/15 04:05:16;;;;;;;6.78;4.05;;;;;;;28.21;43.11;99737.16;4492307;31;34069;-69
2023/07/15 04:07:44;;;;;;;6.70;4.53;;;;;;;28.22;43.14;99740.75;4500306;31;33541;-69
2023/07/15 04:10:11;;;;;;;7.35;4.70;;;;;;;28.21;43.13;99730.81;4499859;31;34654;-70
2023/07/15 04:12:39;;;;;;;5.65;3.95;;;;;;;28.21;43.14;99728.94;4500006;31;33813;-70
2023/07/15 04:15:07;;;;;;;6.87;4.15;;;;;;;28.21;43.16;99728.09;4499866;31;34656;-69
2023/07/15 04:17:35;;;;;;;6.57;3.90;;;;;;;28.20;43.18;99731.91;4498837;31;33692;-68
2023/07/15 04:20:10;;;;;;;6.78;4.22;;;;;;;28.19;43.19;99724.78;4499984;31;33696;-70
2023/07/15 04:22:37;;;;;;;6.35;4.15;;;;;;;28.21;43.21;99722.59;4499788;31;34593;-70
2023/07/15 04:25:05;;;;;;;6.18;4.20;;;;;;;28.21;43.23;99717.09;4500128;31;33912;-70
2023/07/15 04:27:33;;;;;;;5.97;3.85;;;;;;;28.19;43.26;99714.62;4499841;31;33292;-68
2023/07/15 04:30:03;;;;;;;5.93;4.32;;;;;;;28.19;43.29;99722.88;4499730;31;33710;-64
2023/07/15 04:32:30;;;;;;;6.37;4.07;;;;;;;28.20;43.31;99720.94;4499652;31;33555;-69
2023/07/15 04:34:58;;;;;;;6.45;3.70;;;;;;;28.20;43.34;99726.44;4499728;31;33755;-66
2023/07/15 04:37:26;;;;;;;7.12;4.28;;;;;;;28.19;43.38;99733.84;4498494;31;33536;-67
2023/07/15 04:39:53;;;;;;;6.90;4.32;;;;;;;28.19;43.42;99731.09;4499720;31;33817;-66
2023/07/15 04:42:21;;;;;;;7.15;4.57;;;;;;;28.20;43.43;99732.75;4498871;31;33958;-67
2023/07/15 04:44:48;;;;;;;6.55;4.43;;;;;;;28.19;43.48;99739.31;4496005;31;34562;-67
2023/07/15 04:47:16;;;;;;;7.72;4.30;;;;;;;28.20;43.49;99743.72;4488092;31;33300;-67
2023/07/15 04:49:44;;;;;;;7.53;4.20;;;;;;;28.19;43.48;99747.56;4483513;32;34327;-67
2023/07/15 04:52:11;;;;;;;6.65;4.20;;;;;;;28.20;43.47;99746.47;4483748;32;33892;-67
2023/07/15 04:54:39;;;;;;;7.68;4.05;;;;;;;28.20;43.48;99738.22;4483768;32;33901;-67
2023/07/15 04:57:07;;;;;;;8.25;4.18;;;;;;;28.18;43.49;99743.16;4483627;32;34157;-65
2023/07/15 04:59:35;;;;;;;7.00;4.10;;;;;;;28.20;43.49;99748.38;4469860;32;34353;-65
2023/07/15 05:02:03;;;;;;;10.40;4.30;;;;;;;28.19;43.49;99742.06;4483791;32;35029;-67
2023/07/15 05:04:30;;;;;;;5.70;4.10;;;;;;;28.19;43.51;99744.00;4487614;31;33947;-67
2023/07/15 05:06:58;;;;;;;6.70;3.87;;;;;;;28.18;43.51;99751.41;4499448;31;33266;-67
2023/07/15 05:09:26;;;;;;;6.30;3.90;;;;;;;28.19;43.48;99755.78;4499252;31;34667;-67
2023/07/15 05:11:53;;;;;;;7.62;4.75;;;;;;;28.20;43.45;99756.63;4499121;31;34750;-65
2023/07/15 05:14:21;;;;;;;6.47;4.32;;;;;;;28.20;43.45;99762.09;4499262;31;34754;-66
2023/07/15 05:16:48;;;;;;;6.22;4.15;;;;;;;28.19;43.47;99753.03;4499212;31;34518;-65
2023/07/15 05:19:16;;;;;;;6.62;4.05;;;;;;;28.21;43.44;99755.53;4498981;31;33911;-65
2023/07/15 05:21:44;;;;;;;9.80;3.90;;;;;;;28.19;43.47;99755.78;4499158;31;34026;-65
2023/07/15 05:24:11;;;;;;;6.18;4.00;;;;;;;28.20;43.47;99760.19;4499167;31;33779;-66
2023/07/15 05:26:39;;;;;;;6.43;4.22;;;;;;;28.20;43.45;99753.88;4499019;31;33419;-65
2023/07/15 05:29:08;;;;;;;7.65;4.10;;;;;;;28.20;43.46;99762.94;4499056;31;34897;-65
2023/07/15 05:31:35;;;;;;;7.13;4.33;;;;;;;28.21;43.47;99761.88;4498768;31;34012;-65
2023/07/15 05:34:04;;;;;;;6.32;4.18;;;;;;;28.23;43.45;99767.09;4498960;31;33987;-65
2023/07/15 05:36:31;;;;;;;6.53;3.80;;;;;;;28.22;43.43;99765.44;4498957;31;33502;-65
2023/07/15 05:38:59;;;;;;;7.12;3.95;;;;;;;28.21;43.43;99770.09;4493600;31;34417;-67
2023/07/15 05:41:26;;;;;;;6.62;4.20;;;;;;;28.22;43.44;99774.47;4483112;32;33894;-67
2023/07/15 05:43:54;;;;;;;6.37;4.32;;;;;;;28.22;43.42;99774.47;4483084;32;34466;-67
2023/07/15 05:46:22;;;;;;;6.62;3.80;;;;;;;28.22;43.41;99782.72;4483057;32;33304;-67
2023/07/15 05:48:49;;;;;;;7.82;4.22;;;;;;;28.22;43.39;99785.47;4482835;32;33788;-65
2023/07/15 05:51:17;;;;;;;6.55;3.90;;;;;;;28.23;43.38;99778.06;4482870;32;34007;-65
2023/07/15 05:53:45;;;;;;;7.05;4.18;;;;;;;28.23;43.36;99784.38;4483209;32;33795;-67
2023/07/15 05:56:12;;;;;;;4.80;3.40;;;;;;;28.23;43.34;99786.28;4485189;32;34128;-65
2023/07/15 05:58:40;;;;;;;5.53;3.70;;;;;;;28.24;43.34;99787.94;4485282;32;34581;-65
2023/07/15 06:01:08;;;;;;;7.82;4.20;;;;;;;28.23;43.35;99784.38;4485204;32;34462;-67
2023/07/15 06:03:35;;;;;;;6.05;4.18;;;;;;;28.23;43.30;99781.63;4484949;32;33681;-67
2023/07/15 06:06:03;;;;;;;8.20;4.35;;;;;;;28.23;43.25;99783.53;4499540;31;33326;-68
2023/07/15 06:08:33;;;;;;;6.12;4.10;;;;;;;28.25;43.23;99788.75;4500956;31;34417;-66
2023/07/15 06:11:01;;;;;;;7.72;4.12;;;;;;;28.25;43.23;99791.50;4500754;31;33672;-67
2023/07/15 06:13:29;;;;;;;6.70;4.20;;;;;;;28.23;43.19;99784.38;4500945;31;33914;-67
2023/07/15 06:15:57;;;;;;;5.60;4.03;;;;;;;28.25;43.22;99789.59;4500978;31;33115;-67
2023/07/15 06:18:24;;;;;;;8.23;4.18;;;;;;;28.26;43.18;99782.19;4500885;31;33638;-67
2023/07/15 06:20:52;;;;;;;5.53;3.95;;;;;;;28.26;43.15;99793.16;4500766;31;33999;-67
2023/07/15 06:23:19;;;;;;;6.72;3.83;;;;;;;28.27;43.12;99789.34;4500808;31;33860;-67
2023/07/15 06:25:48;;;;;;;7.57;4.32;;;;;;;28.27;43.10;99786.59;4500783;31;33760;-68
2023/07/15 06:28:15;;;;;;;8.20;4.22;;;;;;;28.27;43.10;99786.59;4500806;31;33343;-68
2023/07/15 06:30:44;;;;;;;5.10;3.62;;;;;;;28.27;43.14;99792.09;4500688;31;34009;-67
2023/07/15 06:33:12;;;;;;;6.28;4.20;;;;;;;28.27;43.12;99787.44;4500747;31;34567;-67
2023/07/15 06:35:40;;;;;;;7.25;3.95;;;;;;;28.29;43.12;99793.47;4500820;31;34204;-67
2023/07/15 06:38:07;;;;;;;7.70;4.22;;;;;;;28.28;43.13;99789.06;4495646;31;33402;-65
2023/07/15 06:40:35;;;;;;;6.43;4.05;;;;;;;28.28;43.11;99791.00;4500507;31;33977;-66
2023/07/15 06:43:02;;;;;;;6.53;4.10;;;;;;;28.29;43.10;99781.66;4500704;31;33889;-65
2023/07/15 06:45:36;;;;;;;6.03;3.55;;;;;;;28.29;43.12;99790.72;4491475;31;33435;-66
2023/07/15 06:48:04;;;;;;;5.80;4.00;;;;;;;28.29;43.14;99787.97;4485007;32;33647;-65
2023/07/15 06:50:31;;;;;;;6.03;3.70;;;;;;;28.30;43.12;99783.31;4483500;32;33800;-66
2023/07/15 06:52:58;;;;;;;5.78;3.78;;;;;;;28.31;43.12;99795.97;4482518;32;34013;-65
2023/07/15 06:55:26;;;;;;;5.95;3.80;;;;;;;28.32;43.13;99798.44;4483469;32;34099;-64
2023/07/15 06:57:54;;;;;;;6.87;3.80;;;;;;;28.32;43.13;99792.12;4494467;31;34923;-66
2023/07/15 07:00:22;;;;;;;5.00;3.70;;;;;;;28.33;43.13;99800.09;4499666;31;33689;-64
2023/07/15 07:02:50;;;;;;;5.72;3.97;;;;;;;28.34;43.13;99799.03;4500146;31;33949;-65
2023/07/15 07:05:19;;;;;;;6.87;4.10;;;;;;;28.34;43.15;99796.28;4498576;31;33922;-66
2023/07/15 07:07:46;;;;;;;4.85;3.58;;;;;;;28.35;43.17;99797.97;4500279;31;33942;-65
2023/07/15 07:10:14;;;;;;;8.18;4.35;;;;;;;28.36;43.14;99796.06;4500410;31;33636;-66
2023/07/15 07:12:42;;;;;;;6.90;3.75;;;;;;;28.38;43.14;99791.12;4500546;31;34375;-65
2023/07/15 07:15:10;;;;;;;6.37;3.80;;;;;;;28.39;43.14;99792.78;4500450;31;33536;-65
2023/07/15 07:17:37;;;;;;;5.50;4.03;;;;;;;28.40;43.16;99797.19;4499047;31;32724;-65
2023/07/15 07:20:06;;;;;;;6.82;3.70;;;;;;;28.40;43.14;99795.28;4500152;31;34889;-66
2023/07/15 07:22:33;;;;;;;6.12;3.70;;;;;;;28.41;43.18;99793.34;4500127;31;34561;-66
2023/07/15 07:25:01;;;;;;;6.12;3.75;;;;;;;28.42;43.19;99800.50;4500584;31;33491;-65
2023/07/15 07:27:28;;;;;;;5.55;3.40;;;;;;;28.42;43.21;99804.06;4500619;31;33895;-66
2023/07/15 07:29:59;;;;;;;5.53;3.87;;;;;;;28.44;43.25;99795.56;4500312;31;33651;-65
2023/07/15 07:32:27;;;;;;;5.37;3.67;;;;;;;28.44;43.28;99792.81;4500135;31;33933;-65
2023/07/15 07:34:54;;;;;;;7.68;3.80;;;;;;;28.46;43.27;99801.63;4486556;31;33294;-65
2023/07/15 07:37:22;;;;;;;7.15;4.25;;;;;;;28.47;43.27;99797.78;4484474;32;35092;-66
2023/07/15 07:39:50;;;;;;;5.70;3.62;;;;;;;28.48;43.30;99799.44;4484482;32;35002;-66
2023/07/15 07:42:17;;;;;;;6.35;3.53;;;;;;;28.50;43.41;99802.78;4483183;32;33961;-65
2023/07/15 07:44:45;;;;;;;6.55;3.50;;;;;;;28.51;43.42;99807.16;4484466;32;34324;-66
2023/07/15 07:47:13;;;;;;;5.97;3.90;;;;;;;28.53;43.41;99802.22;4484440;32;33974;-66
2023/07/15 07:49:41;;;;;;;5.80;4.03;;;;;;;28.53;43.45;99801.41;4484488;32;34491;-66
2023/07/15 07:52:08;;;;;;;6.35;3.65;;;;;;;28.55;43.48;99802.81;4483436;32;33971;-64
2023/07/15 07:54:36;;;;;;;5.55;3.22;;;;;;;28.55;43.48;99802.81;4484478;32;33614;-66
2023/07/15 07:57:04;;;;;;;5.80;3.20;;;;;;;28.56;43.51;99790.75;4484208;32;34659;-65
2023/07/15 07:59:31;;;;;;;4.85;3.72;;;;;;;28.57;43.52;99791.56;4484255;32;34771;-66
2023/07/15 08:01:59;;;;;;;5.45;3.60;;;;;;;28.58;43.55;99791.28;4484180;32;35152;-66
2023/07/15 08:04:26;;;;;;;5.55;3.75;;;;;;;28.60;43.59;99788.31;4483978;32;33327;-67
2023/07/15 08:06:57;;;;;;;6.57;3.90;;;;;;;28.61;43.62;99793.53;4484191;32;33416;-66
2023/07/15 08:09:24;;;;;;;5.43;3.60;;;;;;;28.61;43.69;99788.03;4484168;32;34498;-66
2023/07/15 08:11:52;;;;;;;8.02;3.97;;;;;;;28.63;43.66;99791.38;4484056;32;34543;-65
2023/07/15 08:14:19;;;;;;;6.07;3.83;;;;;;;28.65;43.70;99791.91;4484197;32;33380;-66
2023/07/15 08:16:47;;;;;;;6.03;3.53;;;;;;;28.66;43.73;99792.75;4483142;32;33809;-65
2023/07/15 08:19:15;;;;;;;5.95;3.85;;;;;;;28.66;43.76;99793.56;4483992;32;33994;-65
2023/07/15 08:21:42;;;;;;;6.18;4.03;;;;;;;28.68;43.77;99793.31;4484032;32;34757;-66
2023/07/15 08:24:10;;;;;;;5.90;3.20;;;;;;;28.68;43.80;99796.91;4484060;32;33397;-67
2023/07/15 08:26:38;;;;;;;5.75;3.92;;;;;;;28.70;43.82;99796.63;4484154;32;33988;-66
2023/07/15 08:29:05;;;;;;;5.35;3.60;;;;;;;28.71;43.86;99801.84;4469789;32;35023;-65
2023/07/15 08:31:33;;;;;;;5.40;3.55;;;;;;;28.72;43.84;99802.66;4483759;32;33656;-65
2023/07/15 08:34:02;;;;;;;4.85;3.58;;;;;;;28.72;43.81;99799.94;4491784;31;33854;-66
2023/07/15 08:36:30;;;;;;;6.60;3.92;;;;;;;28.72;43.80;99798.03;4500030;31;33910;-66
2023/07/15 08:38:57;;;;;;;4.82;3.50;;;;;;;28.73;43.78;99794.19;4498563;31;34043;-66
2023/07/15 08:41:25;;;;;;;5.75;3.87;;;;;;;28.74;43.79;99795.03;4499656;31;33561;-65
2023/07/15 08:43:53;;;;;;;6.87;3.85;;;;;;;28.75;43.83;99798.59;4499709;31;33356;-65
2023/07/15 08:46:30;;;;;;;5.65;3.80;;;;;;;28.75;43.88;99798.59;4485576;31;33878;-66
2023/07/15 08:48:59;;;;;;;5.50;3.67;;;;;;;28.76;43.90;99806.56;4493018;31;34719;-65
2023/07/15 08:51:45;;;;;;;6.15;3.83;;;;;;;28.75;43.90;99799.41;4485628;31;34050;-64
2023/07/15 08:54:13;;;;;;;8.88;4.10;;;;;;;28.79;43.85;99800.53;4483877;32;33418;-66
2023/07/15 08:56:40;;;;;;;6.20;3.83;;;;;;;28.76;43.90;99790.06;4491425;31;33622;-66
2023/07/15 08:59:08;;;;;;;6.10;4.22;;;;;;;28.75;43.94;99793.91;4499334;31;34752;-67
2023/07/15 09:01:36;;;;;;;6.68;4.18;;;;;;;28.77;43.94;99799.97;4499357;31;34599;-66
2023/07/15 09:04:03;;;;;;;5.95;3.60;;;;;;;28.78;43.96;99789.84;4499273;31;33330;-67
2023/07/15 09:06:32;;;;;;;6.70;3.78;;;;;;;28.79;43.95;99799.72;4499117;31;33465;-66
2023/07/15 09:08:59;;;;;;;8.38;3.97;;;;;;;28.78;43.96;99800.81;4499206;31;33930;-64
2023/07/15 09:11:38;;;;;;;7.82;4.47;;;;;;;28.79;44.01;99802.47;4499255;31;33436;-68
2023/07/15 09:14:16;;;;;;;6.00;4.05;;;;;;;28.79;44.01;99806.03;4499075;31;34232;-66
2023/07/15 09:16:43;;;;;;;5.28;3.60;;;;;;;28.81;43.99;99805.75;4485305;31;34053;-65
2023/07/15 09:19:11;;;;;;;5.95;3.62;;;;;;;28.79;44.05;99800.53;4499105;31;34814;-66
2023/07/15 09:21:50;;;;;;;5.95;3.87;;;;;;;28.80;44.09;99804.13;4497642;31;34046;-69
2023/07/15 09:24:17;;;;;;;6.35;3.70;;;;;;;28.80;44.08;99804.13;4497877;31;33318;-67
2023/07/15 09:26:51;;;;;;;6.20;3.78;;;;;;;28.80;44.07;99815.94;4498857;31;33989;-66
2023/07/15 09:29:20;;;;;;;6.10;3.92;;;;;;;28.79;44.11;99811.53;4499294;31;34105;-65
2023/07/15 09:31:48;;;;;;;6.30;3.60;;;;;;;28.80;44.12;99815.09;4500675;31;33845;-66
2023/07/15 09:34:18;;;;;;;5.03;3.70;;;;;;;28.80;44.11;99806.88;4491382;31;33491;-66
2023/07/15 09:36:46;;;;;;;6.65;4.03;;;;;;;28.81;44.13;99808.50;4458381;32;35145;-66
2023/07/15 09:39:14;;;;;;;5.53;3.83;;;;;;;28.81;44.12;99809.34;4485286;32;34586;-66
2023/07/15 09:41:41;;;;;;;7.37;3.85;;;;;;;28.81;44.13;99806.59;4458455;32;33843;-66
2023/07/15 09:44:10;;;;;;;7.32;4.15;;;;;;;28.81;44.17;99806.59;4471148;32;33123;-65
2023/07/15 09:46:39;;;;;;;5.35;3.87;;;;;;;28.82;44.23;99812.91;4470863;32;33631;-66
2023/07/15 09:49:06;;;;;;;6.10;4.32;;;;;;;28.83;44.28;99811.84;4471090;32;34819;-66
2023/07/15 09:51:34;;;;;;;6.43;4.07;;;;;;;28.84;44.33;99803.34;4485150;32;34589;-65
2023/07/15 09:54:02;;;;;;;5.47;4.32;;;;;;;28.88;44.52;99811.88;4458105;32;33497;-66
2023/07/15 09:56:36;;;;;;;6.10;4.05;;;;;;;28.87;44.49;99802.81;4485165;32;33835;-65
2023/07/15 09:59:18;;;;;;;6.70;4.05;;;;;;;28.91;44.55;99792.97;4485139;32;34088;-66
2023/07/15 10:02:03;;;;;;;6.45;4.15;;;;;;;28.95;44.67;99788.59;4458261;32;33731;-67
2023/07/15 10:04:35;;;;;;;6.18;4.37;;;;;;;28.96;44.60;99792.19;4484858;32;33195;-65
2023/07/15 10:07:03;;;;;;;8.95;4.60;;;;;;;28.95;44.76;99794.09;4485238;32;34644;-65
2023/07/15 10:09:31;;;;;;;6.43;4.43;;;;;;;28.97;44.77;99791.09;4471077;32;34910;-65
2023/07/15 10:11:59;;;;;;;6.37;4.20;;;;;;;29.01;44.82;99791.41;4484707;32;34918;-65
2023/07/15 10:14:29;;;;;;;6.25;4.10;;;;;;;29.04;44.83;99790.88;4445475;32;32719;-66
2023/07/15 10:17:08;;;;;;;5.53;3.70;;;;;;;29.04;44.84;99788.94;4458432;32;34799;-67
2023/07/15 10:19:42;;;;;;;5.45;3.70;;;;;;;29.07;44.83;99782.94;4471026;32;33803;-66
2023/07/15 10:22:10;;;;;;;7.25;4.60;;;;;;;29.11;44.84;99784.06;4485298;32;33431;-65
2023/07/15 10:24:52;;;;;;;6.12;3.70;;;;;;;29.11;44.95;99794.22;4470720;32;34052;-65
2023/07/15 10:27:19;;;;;;;7.40;3.95;;;;;;;29.13;45.04;99789.28;4459073;32;33956;-66
2023/07/15 10:30:10;;;;;;;9.23;4.32;;;;;;;29.16;45.07;99786.00;4484759;32;33346;-66
2023/07/15 10:32:38;;;;;;;6.65;3.78;;;;;;;29.16;45.21;99781.34;4457418;32;33518;-65
2023/07/15 10:35:06;;;;;;;6.20;4.25;;;;;;;29.21;45.21;99786.88;4469769;32;33423;-68
2023/07/15 10:37:34;;;;;;;5.68;3.85;;;;;;;29.25;45.11;99789.09;4484791;32;34907;-65
2023/07/15 10:40:02;;;;;;;5.70;3.60;;;;;;;29.23;44.99;99784.66;4484114;32;34658;-69
2023/07/15 10:42:29;;;;;;;5.20;3.50;;;;;;;29.25;44.92;99791.84;4484719;32;33806;-66
2023/07/15 10:44:57;;;;;;;6.07;4.03;;;;;;;29.24;44.85;99788.28;4470764;32;33115;-66
2023/07/15 10:47:25;;;;;;;5.80;3.80;;;;;;;29.26;44.79;99782.50;4480526;32;33796;-65
2023/07/15 10:49:52;;;;;;;5.35;3.78;;;;;;;29.25;44.73;99780.84;4455071;32;35462;-66
2023/07/15 10:52:23;;;;;;;6.45;4.30;;;;;;;29.23;44.68;99781.91;4472505;32;33722;-67
2023/07/15 10:54:53;;;;;;;8.27;4.05;;;;;;;29.23;44.66;99781.91;4485003;32;33918;-66
2023/07/15 10:57:25;;;;;;;6.22;4.40;;;;;;;29.21;44.66;99784.12;4484821;32;34035;-66
2023/07/15 10:59:59;;;;;;;5.80;3.60;;;;;;;29.22;44.65;99777.53;4459123;32;33993;-65
2023/07/15 11:02:26;;;;;;;5.53;3.53;;;;;;;29.21;44.64;99778.63;4470311;32;34172;-66
2023/07/15 11:04:54;;;;;;;6.28;3.85;;;;;;;29.22;44.61;99777.53;4484828;32;33832;-66
2023/07/15 11:07:22;;;;;;;5.60;4.30;;;;;;;29.21;44.62;99769.56;4457918;32;33690;-66
2023/07/15 11:09:49;;;;;;;7.43;4.22;;;;;;;29.20;44.64;99768.72;4484595;32;33630;-69
2023/07/15 11:12:17;;;;;;;5.40;3.90;;;;;;;29.20;44.66;99765.97;4484944;32;34037;-67
2023/07/15 11:14:45;;;;;;;7.05;4.50;;;;;;;29.21;44.68;99761.31;4485005;32;33490;-66
2023/07/15 11:17:13;;;;;;;5.53;4.05;;;;;;;29.20;44.71;99765.97;4484007;32;33911;-66
2023/07/15 11:19:45;;;;;;;6.78;4.37;;;;;;;29.19;44.77;99767.09;4470705;32;34144;-66
2023/07/15 11:22:13;;;;;;;8.13;4.80;;;;;;;29.22;44.77;99760.22;4483997;32;34755;-68
2023/07/15 11:24:41;;;;;;;6.10;4.45;;;;;;;29.21;44.85;99758.56;4480244;32;34662;-65
2023/07/15 11:27:09;;;;;;;5.40;3.97;;;;;;;29.21;44.91;99748.41;4454850;32;34606;-69
2023/07/15 11:29:37;;;;;;;8.18;4.53;;;;;;;29.20;44.94;99752.25;4469032;32;33131;-65
2023/07/15 11:32:06;;;;;;;5.75;4.20;;;;;;;29.20;44.99;99752.25;4481284;32;34461;-67
2023/07/15 11:34:34;;;;;;;6.47;4.72;;;;;;;29.20;45.04;99752.25;4484592;32;33251;-67
2023/07/15 11:37:07;;;;;;;8.18;5.03;;;;;;;29.20;45.10;99752.25;4484765;32;33598;-66
2023/07/15 11:39:40;;;;;;;6.62;4.68;;;;;;;29.21;45.17;99751.16;4471241;32;34847;-65
2023/07/15 11:42:08;;;;;;;5.93;4.70;;;;;;;29.20;45.12;99746.75;4488165;31;33933;-67